sensor_id;sensor_type;location;lat;lon;timestamp;P1;durP1;ratioP1;P2;durP2;ratioP2
22480;SDS011;11407;56.964;-2.212;2022-12-13T00:01:52;2.57;;;1.10;;
22480;SDS011;11407;56.964;-2.212;2022-12-13T00:04:19;2.33;;;1.57;;
22480;SDS011;11407;56.964;-2.212;2022-12-13T00:06:45;2.20;;;1.23;;
22480;SDS011;11407;56.964;-2.212;2022-12-13T00:09:12;4.07;;;1.30;;
22480;SDS011;11407;56.964;-2.212;2022-12-13T00:11:39;0.80;;;0.80;;
22480;SDS011;11407;56.964;-2.212;2022-12-13T00:14:04;4.20;;;1.30;;
22480;SDS011;11407;56.964;-2.212;2022-12-13T00:16:30;2.27;;;1.30;;
22480;SDS011;11407;56.964;-2.212;2022-12-13T00:18:56;2.17;;;1.30;;
22480;SDS011;11407;56.964;-2.212;2022-12-13T00:21:24;3.93;;;1.50;;
22480;SDS011;11407;56.964;-2.212;2022-12-13T00:23:51;1.80;;;1.17;;
22480;SDS011;11407;56.964;-2.212;2022-12-13T00:26:19;1.60;;;1.20;;
22480;SDS011;11407;56.964;-2.212;2022-12-13T00:28:50;1.70;;;1.17;;
22480;SDS011;11407;56.964;-2.212;2022-12-13T00:31:17;1.77;;;1.10;;
22480;SDS011;11407;56.964;-2.212;2022-12-13T00:33:44;1.93;;;0.90;;
22480;SDS011;11407;56.964;-2.212;2022-12-13T00:36:10;1.57;;;1.20;;
22480;SDS011;11407;56.964;-2.212;2022-12-13T00:38:36;1.73;;;1.30;;
22480;SDS011;11407;56.964;-2.212;2022-12-13T00:41:12;2.47;;;1.30;;
22480;SDS011;11407;56.964;-2.212;2022-12-13T00:43:39;2.00;;;1.23;;
22480;SDS011;11407;56.964;-2.212;2022-12-13T00:46:15;2.07;;;0.87;;
22480;SDS011;11407;56.964;-2.212;2022-12-13T00:48:42;1.93;;;0.97;;
22480;SDS011;11407;56.964;-2.212;2022-12-13T00:51:09;1.40;;;1.00;;
22480;SDS011;11407;56.964;-2.212;2022-12-13T00:53:36;1.60;;;1.10;;
22480;SDS011;11407;56.964;-2.212;2022-12-13T00:56:03;2.00;;;1.07;;
22480;SDS011;11407;56.964;-2.212;2022-12-13T00:58:33;1.80;;;1.13;;
22480;SDS011;11407;56.964;-2.212;2022-12-13T01:01:03;2.90;;;1.40;;
22480;SDS011;11407;56.964;-2.212;2022-12-13T01:03:30;1.87;;;1.30;;
22480;SDS011;11407;56.964;-2.212;2022-12-13T01:05:56;1.77;;;1.13;;
22480;SDS011;11407;56.964;-2.212;2022-12-13T01:08:22;3.90;;;1.07;;
22480;SDS011;11407;56.964;-2.212;2022-12-13T01:10:48;1.30;;;0.97;;
22480;SDS011;11407;56.964;-2.212;2022-12-13T01:13:13;2.73;;;1.30;;
22480;SDS011;11407;56.964;-2.212;2022-12-13T01:15:42;1.93;;;0.97;;
22480;SDS011;11407;56.964;-2.212;2022-12-13T01:18:09;2.37;;;1.50;;
22480;SDS011;11407;56.964;-2.212;2022-12-13T01:20:35;2.40;;;1.90;;
22480;SDS011;11407;56.964;-2.212;2022-12-13T01:23:01;1.27;;;0.97;;
22480;SDS011;11407;56.964;-2.212;2022-12-13T01:25:26;1.93;;;1.33;;
22480;SDS011;11407;56.964;-2.212;2022-12-13T01:27:52;1.50;;;1.10;;
22480;SDS011;11407;56.964;-2.212;2022-12-13T01:30:17;1.57;;;1.07;;
22480;SDS011;11407;56.964;-2.212;2022-12-13T01:32:43;1.30;;;0.80;;
22480;SDS011;11407;56.964;-2.212;2022-12-13T01:35:09;2.87;;;0.90;;
22480;SDS011;11407;56.964;-2.212;2022-12-13T01:37:34;2.47;;;1.03;;
22480;SDS011;11407;56.964;-2.212;2022-12-13T01:40:01;2.47;;;1.07;;
22480;SDS011;11407;56.964;-2.212;2022-12-13T01:42:29;1.33;;;1.03;;
22480;SDS011;11407;56.964;-2.212;2022-12-13T01:47:35;0.80;;;0.73;;
22480;SDS011;11407;56.964;-2.212;2022-12-13T01:50:13;1.53;;;1.00;;
22480;SDS011;11407;56.964;-2.212;2022-12-13T01:52:41;1.83;;;1.20;;
22480;SDS011;11407;56.964;-2.212;2022-12-13T01:55:09;1.77;;;1.30;;
22480;SDS011;11407;56.964;-2.212;2022-12-13T01:57:36;2.37;;;1.27;;
22480;SDS011;11407;56.964;-2.212;2022-12-13T02:00:06;1.80;;;1.20;;
22480;SDS011;11407;56.964;-2.212;2022-12-13T02:02:32;1.90;;;1.33;;
22480;SDS011;11407;56.964;-2.212;2022-12-13T02:07:34;3.97;;;1.70;;
22480;SDS011;11407;56.964;-2.212;2022-12-13T02:10:03;2.73;;;1.80;;
22480;SDS011;11407;56.964;-2.212;2022-12-13T02:12:31;1.90;;;1.40;;
22480;SDS011;11407;56.964;-2.212;2022-12-13T02:14:59;1.77;;;1.40;;
22480;SDS011;11407;56.964;-2.212;2022-12-13T02:17:35;2.30;;;1.73;;
22480;SDS011;11407;56.964;-2.212;2022-12-13T02:31:46;1.10;;;1.00;;
22480;SDS011;11407;56.964;-2.212;2022-12-13T02:34:17;1.47;;;0.97;;
22480;SDS011;11407;56.964;-2.212;2022-12-13T02:39:53;1.43;;;0.90;;
22480;SDS011;11407;56.964;-2.212;2022-12-13T02:42:48;1.77;;;1.10;;
22480;SDS011;11407;56.964;-2.212;2022-12-13T02:45:19;1.50;;;1.00;;
22480;SDS011;11407;56.964;-2.212;2022-12-13T02:47:53;1.27;;;1.10;;
22480;SDS011;11407;56.964;-2.212;2022-12-13T02:50:21;1.27;;;0.73;;
22480;SDS011;11407;56.964;-2.212;2022-12-13T02:52:48;1.07;;;0.90;;
22480;SDS011;11407;56.964;-2.212;2022-12-13T02:55:16;3.90;;;0.97;;
22480;SDS011;11407;56.964;-2.212;2022-12-13T02:57:42;2.30;;;1.00;;
22480;SDS011;11407;56.964;-2.212;2022-12-13T03:00:13;2.50;;;1.07;;
22480;SDS011;11407;56.964;-2.212;2022-12-13T03:02:44;1.17;;;1.00;;
22480;SDS011;11407;56.964;-2.212;2022-12-13T03:06:17;1.83;;;1.00;;
22480;SDS011;11407;56.964;-2.212;2022-12-13T03:09:02;1.70;;;1.00;;
22480;SDS011;11407;56.964;-2.212;2022-12-13T03:14:35;1.70;;;1.40;;
22480;SDS011;11407;56.964;-2.212;2022-12-13T03:17:09;1.47;;;0.90;;
22480;SDS011;11407;56.964;-2.212;2022-12-13T03:19:41;1.37;;;0.83;;
22480;SDS011;11407;56.964;-2.212;2022-12-13T03:22:06;2.00;;;0.70;;
22480;SDS011;11407;56.964;-2.212;2022-12-13T03:24:32;1.77;;;0.87;;
22480;SDS011;11407;56.964;-2.212;2022-12-13T03:26:57;2.00;;;1.20;;
22480;SDS011;11407;56.964;-2.212;2022-12-13T03:29:23;1.20;;;0.90;;
22480;SDS011;11407;56.964;-2.212;2022-12-13T03:31:48;1.17;;;1.00;;
22480;SDS011;11407;56.964;-2.212;2022-12-13T03:34:14;1.57;;;1.20;;
22480;SDS011;11407;56.964;-2.212;2022-12-13T03:36:39;1.07;;;0.90;;
22480;SDS011;11407;56.964;-2.212;2022-12-13T03:39:04;0.93;;;0.83;;
22480;SDS011;11407;56.964;-2.212;2022-12-13T03:41:30;1.10;;;1.00;;
22480;SDS011;11407;56.964;-2.212;2022-12-13T03:44:02;0.90;;;0.70;;
22480;SDS011;11407;56.964;-2.212;2022-12-13T03:46:29;1.80;;;0.93;;
22480;SDS011;11407;56.964;-2.212;2022-12-13T03:48:54;1.47;;;0.93;;
22480;SDS011;11407;56.964;-2.212;2022-12-13T03:51:19;1.10;;;1.00;;
22480;SDS011;11407;56.964;-2.212;2022-12-13T03:53:45;1.00;;;0.90;;
22480;SDS011;11407;56.964;-2.212;2022-12-13T03:56:10;1.40;;;0.73;;
22480;SDS011;11407;56.964;-2.212;2022-12-13T03:58:36;2.97;;;1.20;;
22480;SDS011;11407;56.964;-2.212;2022-12-13T04:01:02;1.37;;;1.00;;
22480;SDS011;11407;56.964;-2.212;2022-12-13T04:03:35;2.67;;;0.80;;
22480;SDS011;11407;56.964;-2.212;2022-12-13T04:06:03;1.40;;;0.87;;
22480;SDS011;11407;56.964;-2.212;2022-12-13T04:08:29;0.93;;;0.80;;
22480;SDS011;11407;56.964;-2.212;2022-12-13T04:10:54;1.50;;;0.87;;
22480;SDS011;11407;56.964;-2.212;2022-12-13T04:13:20;1.23;;;0.77;;
22480;SDS011;11407;56.964;-2.212;2022-12-13T04:15:57;1.17;;;0.63;;
22480;SDS011;11407;56.964;-2.212;2022-12-13T04:18:23;1.37;;;0.90;;
22480;SDS011;11407;56.964;-2.212;2022-12-13T04:20:49;1.30;;;1.10;;
22480;SDS011;11407;56.964;-2.212;2022-12-13T04:23:14;2.47;;;1.00;;
22480;SDS011;11407;56.964;-2.212;2022-12-13T04:25:40;0.97;;;0.70;;
22480;SDS011;11407;56.964;-2.212;2022-12-13T04:28:06;1.10;;;0.97;;
22480;SDS011;11407;56.964;-2.212;2022-12-13T04:30:32;1.07;;;0.90;;
22480;SDS011;11407;56.964;-2.212;2022-12-13T04:32:58;2.77;;;0.80;;
22480;SDS011;11407;56.964;-2.212;2022-12-13T04:35:24;1.00;;;0.90;;
22480;SDS011;11407;56.964;-2.212;2022-12-13T04:37:49;1.00;;;0.80;;
22480;SDS011;11407;56.964;-2.212;2022-12-13T04:40:15;1.07;;;0.87;;
22480;SDS011;11407;56.964;-2.212;2022-12-13T04:42:40;0.83;;;0.83;;
22480;SDS011;11407;56.964;-2.212;2022-12-13T04:45:06;1.80;;;1.30;;
22480;SDS011;11407;56.964;-2.212;2022-12-13T04:47:32;1.13;;;1.00;;
22480;SDS011;11407;56.964;-2.212;2022-12-13T04:49:57;1.73;;;1.10;;
22480;SDS011;11407;56.964;-2.212;2022-12-13T04:52:23;0.97;;;0.87;;
22480;SDS011;11407;56.964;-2.212;2022-12-13T04:54:49;3.23;;;0.80;;
22480;SDS011;11407;56.964;-2.212;2022-12-13T04:57:14;1.77;;;1.07;;
22480;SDS011;11407;56.964;-2.212;2022-12-13T04:59:40;2.27;;;1.10;;
22480;SDS011;11407;56.964;-2.212;2022-12-13T05:02:06;1.63;;;0.93;;
22480;SDS011;11407;56.964;-2.212;2022-12-13T05:04:34;1.90;;;0.70;;
22480;SDS011;11407;56.964;-2.212;2022-12-13T05:07:00;0.73;;;0.73;;
22480;SDS011;11407;56.964;-2.212;2022-12-13T05:09:26;1.60;;;1.17;;
22480;SDS011;11407;56.964;-2.212;2022-12-13T05:11:51;2.47;;;1.10;;
22480;SDS011;11407;56.964;-2.212;2022-12-13T05:14:17;1.00;;;0.80;;
22480;SDS011;11407;56.964;-2.212;2022-12-13T05:16:42;4.60;;;1.47;;
22480;SDS011;11407;56.964;-2.212;2022-12-13T05:19:08;1.67;;;1.20;;
22480;SDS011;11407;56.964;-2.212;2022-12-13T05:21:33;1.10;;;1.00;;
22480;SDS011;11407;56.964;-2.212;2022-12-13T05:23:59;2.20;;;1.20;;
22480;SDS011;11407;56.964;-2.212;2022-12-13T05:26:26;1.90;;;1.30;;
22480;SDS011;11407;56.964;-2.212;2022-12-13T05:28:54;2.03;;;1.10;;
22480;SDS011;11407;56.964;-2.212;2022-12-13T05:31:20;1.07;;;0.83;;
22480;SDS011;11407;56.964;-2.212;2022-12-13T05:33:45;3.87;;;1.30;;
22480;SDS011;11407;56.964;-2.212;2022-12-13T05:36:11;1.10;;;1.00;;
22480;SDS011;11407;56.964;-2.212;2022-12-13T05:38:36;2.20;;;1.20;;
22480;SDS011;11407;56.964;-2.212;2022-12-13T05:41:02;2.00;;;0.70;;
22480;SDS011;11407;56.964;-2.212;2022-12-13T05:43:27;1.50;;;1.03;;
22480;SDS011;11407;56.964;-2.212;2022-12-13T05:45:53;1.50;;;1.10;;
22480;SDS011;11407;56.964;-2.212;2022-12-13T05:48:19;1.60;;;0.90;;
22480;SDS011;11407;56.964;-2.212;2022-12-13T05:50:44;2.03;;;1.00;;
22480;SDS011;11407;56.964;-2.212;2022-12-13T05:53:09;1.70;;;0.80;;
22480;SDS011;11407;56.964;-2.212;2022-12-13T05:55:36;2.33;;;0.83;;
22480;SDS011;11407;56.964;-2.212;2022-12-13T05:58:02;1.83;;;0.93;;
22480;SDS011;11407;56.964;-2.212;2022-12-13T06:00:27;2.33;;;1.00;;
22480;SDS011;11407;56.964;-2.212;2022-12-13T06:02:53;1.93;;;1.20;;
22480;SDS011;11407;56.964;-2.212;2022-12-13T06:05:18;1.10;;;1.00;;
22480;SDS011;11407;56.964;-2.212;2022-12-13T06:07:44;1.13;;;0.93;;
22480;SDS011;11407;56.964;-2.212;2022-12-13T06:10:09;1.10;;;1.00;;
22480;SDS011;11407;56.964;-2.212;2022-12-13T06:12:35;1.00;;;0.90;;
22480;SDS011;11407;56.964;-2.212;2022-12-13T06:15:01;0.83;;;0.80;;
22480;SDS011;11407;56.964;-2.212;2022-12-13T06:17:34;1.30;;;1.03;;
22480;SDS011;11407;56.964;-2.212;2022-12-13T06:20:01;1.53;;;1.20;;
22480;SDS011;11407;56.964;-2.212;2022-12-13T06:22:30;1.40;;;0.97;;
22480;SDS011;11407;56.964;-2.212;2022-12-13T06:24:56;1.60;;;1.17;;
22480;SDS011;11407;56.964;-2.212;2022-12-13T06:27:21;0.50;;;0.50;;
22480;SDS011;11407;56.964;-2.212;2022-12-13T06:29:47;1.33;;;1.00;;
22480;SDS011;11407;56.964;-2.212;2022-12-13T06:32:12;1.73;;;0.90;;
22480;SDS011;11407;56.964;-2.212;2022-12-13T06:34:38;1.90;;;1.40;;
22480;SDS011;11407;56.964;-2.212;2022-12-13T06:37:04;1.00;;;0.80;;
22480;SDS011;11407;56.964;-2.212;2022-12-13T06:39:32;1.03;;;0.67;;
22480;SDS011;11407;56.964;-2.212;2022-12-13T06:41:58;0.80;;;0.70;;
22480;SDS011;11407;56.964;-2.212;2022-12-13T06:44:23;1.10;;;0.83;;
22480;SDS011;11407;56.964;-2.212;2022-12-13T06:46:49;1.40;;;1.00;;
22480;SDS011;11407;56.964;-2.212;2022-12-13T06:49:14;1.53;;;0.90;;
22480;SDS011;11407;56.964;-2.212;2022-12-13T06:51:40;2.13;;;0.70;;
22480;SDS011;11407;56.964;-2.212;2022-12-13T06:54:05;1.97;;;0.90;;
22480;SDS011;11407;56.964;-2.212;2022-12-13T06:56:30;1.10;;;0.90;;
22480;SDS011;11407;56.964;-2.212;2022-12-13T06:58:56;0.80;;;0.70;;
22480;SDS011;11407;56.964;-2.212;2022-12-13T07:01:22;0.73;;;0.60;;
22480;SDS011;11407;56.964;-2.212;2022-12-13T07:03:48;2.50;;;0.87;;
22480;SDS011;11407;56.964;-2.212;2022-12-13T07:06:18;0.97;;;0.80;;
22480;SDS011;11407;56.964;-2.212;2022-12-13T07:08:52;0.97;;;0.80;;
22480;SDS011;11407;56.964;-2.212;2022-12-13T07:11:20;0.77;;;0.60;;
22480;SDS011;11407;56.964;-2.212;2022-12-13T07:13:47;0.57;;;0.57;;
22480;SDS011;11407;56.964;-2.212;2022-12-13T07:16:13;2.03;;;0.80;;
22480;SDS011;11407;56.964;-2.212;2022-12-13T07:18:39;1.07;;;0.80;;
22480;SDS011;11407;56.964;-2.212;2022-12-13T07:21:08;0.70;;;0.60;;
22480;SDS011;11407;56.964;-2.212;2022-12-13T07:23:36;0.80;;;0.80;;
22480;SDS011;11407;56.964;-2.212;2022-12-13T07:26:02;1.67;;;0.87;;
22480;SDS011;11407;56.964;-2.212;2022-12-13T07:28:32;1.13;;;0.90;;
22480;SDS011;11407;56.964;-2.212;2022-12-13T07:31:00;1.17;;;1.07;;
22480;SDS011;11407;56.964;-2.212;2022-12-13T07:33:27;0.90;;;0.60;;
22480;SDS011;11407;56.964;-2.212;2022-12-13T07:36:14;1.07;;;0.80;;
22480;SDS011;11407;56.964;-2.212;2022-12-13T07:38:41;4.30;;;0.80;;
22480;SDS011;11407;56.964;-2.212;2022-12-13T07:41:07;1.17;;;0.80;;
22480;SDS011;11407;56.964;-2.212;2022-12-13T07:43:33;2.10;;;1.20;;
22480;SDS011;11407;56.964;-2.212;2022-12-13T07:46:00;2.93;;;1.80;;
22480;SDS011;11407;56.964;-2.212;2022-12-13T07:48:26;2.50;;;1.53;;
22480;SDS011;11407;56.964;-2.212;2022-12-13T07:50:52;1.80;;;1.20;;
22480;SDS011;11407;56.964;-2.212;2022-12-13T07:53:19;1.37;;;1.10;;
22480;SDS011;11407;56.964;-2.212;2022-12-13T07:55:45;1.60;;;1.00;;
22480;SDS011;11407;56.964;-2.212;2022-12-13T07:58:12;1.83;;;0.83;;
22480;SDS011;11407;56.964;-2.212;2022-12-13T08:00:39;1.57;;;1.03;;
22480;SDS011;11407;56.964;-2.212;2022-12-13T08:03:07;3.93;;;1.10;;
22480;SDS011;11407;56.964;-2.212;2022-12-13T08:05:33;1.60;;;1.03;;
22480;SDS011;11407;56.964;-2.212;2022-12-13T08:07:59;1.97;;;1.40;;
22480;SDS011;11407;56.964;-2.212;2022-12-13T08:10:26;2.00;;;1.20;;
22480;SDS011;11407;56.964;-2.212;2022-12-13T08:12:52;1.40;;;1.10;;
22480;SDS011;11407;56.964;-2.212;2022-12-13T08:15:17;2.77;;;1.63;;
22480;SDS011;11407;56.964;-2.212;2022-12-13T08:17:43;2.63;;;1.30;;
22480;SDS011;11407;56.964;-2.212;2022-12-13T08:20:09;1.53;;;1.20;;
22480;SDS011;11407;56.964;-2.212;2022-12-13T08:22:34;2.43;;;1.57;;
22480;SDS011;11407;56.964;-2.212;2022-12-13T08:25:00;4.20;;;1.23;;
22480;SDS011;11407;56.964;-2.212;2022-12-13T08:27:26;1.67;;;1.10;;
22480;SDS011;11407;56.964;-2.212;2022-12-13T08:29:51;2.00;;;1.30;;
22480;SDS011;11407;56.964;-2.212;2022-12-13T08:32:17;2.20;;;1.40;;
22480;SDS011;11407;56.964;-2.212;2022-12-13T08:34:42;1.80;;;1.10;;
22480;SDS011;11407;56.964;-2.212;2022-12-13T08:37:09;1.83;;;1.30;;
22480;SDS011;11407;56.964;-2.212;2022-12-13T08:39:36;1.67;;;1.00;;
22480;SDS011;11407;56.964;-2.212;2022-12-13T08:42:03;1.70;;;1.00;;
22480;SDS011;11407;56.964;-2.212;2022-12-13T08:44:30;3.37;;;1.50;;
22480;SDS011;11407;56.964;-2.212;2022-12-13T08:46:55;1.07;;;0.97;;
22480;SDS011;11407;56.964;-2.212;2022-12-13T08:49:21;2.70;;;1.67;;
22480;SDS011;11407;56.964;-2.212;2022-12-13T08:51:46;2.13;;;1.50;;
22480;SDS011;11407;56.964;-2.212;2022-12-13T08:54:12;1.90;;;1.30;;
22480;SDS011;11407;56.964;-2.212;2022-12-13T08:56:37;2.47;;;1.30;;
22480;SDS011;11407;56.964;-2.212;2022-12-13T08:59:02;2.17;;;1.57;;
22480;SDS011;11407;56.964;-2.212;2022-12-13T09:01:28;2.13;;;1.70;;
22480;SDS011;11407;56.964;-2.212;2022-12-13T09:03:54;2.67;;;1.60;;
22480;SDS011;11407;56.964;-2.212;2022-12-13T09:06:20;2.90;;;1.50;;
22480;SDS011;11407;56.964;-2.212;2022-12-13T09:08:45;2.47;;;1.30;;
22480;SDS011;11407;56.964;-2.212;2022-12-13T09:11:11;1.83;;;1.20;;
22480;SDS011;11407;56.964;-2.212;2022-12-13T09:13:37;2.10;;;1.60;;
22480;SDS011;11407;56.964;-2.212;2022-12-13T09:16:07;2.67;;;1.60;;
22480;SDS011;11407;56.964;-2.212;2022-12-13T09:18:38;2.57;;;1.53;;
22480;SDS011;11407;56.964;-2.212;2022-12-13T09:21:08;1.60;;;1.23;;
22480;SDS011;11407;56.964;-2.212;2022-12-13T09:23:35;1.20;;;0.80;;
22480;SDS011;11407;56.964;-2.212;2022-12-13T09:26:01;1.27;;;1.03;;
22480;SDS011;11407;56.964;-2.212;2022-12-13T09:28:27;1.33;;;0.97;;
22480;SDS011;11407;56.964;-2.212;2022-12-13T09:30:56;2.17;;;1.10;;
22480;SDS011;11407;56.964;-2.212;2022-12-13T09:33:22;1.80;;;1.10;;
22480;SDS011;11407;56.964;-2.212;2022-12-13T09:35:48;1.90;;;1.40;;
22480;SDS011;11407;56.964;-2.212;2022-12-13T09:38:14;1.30;;;1.00;;
22480;SDS011;11407;56.964;-2.212;2022-12-13T09:40:40;2.07;;;1.10;;
22480;SDS011;11407;56.964;-2.212;2022-12-13T09:43:10;1.87;;;1.03;;
22480;SDS011;11407;56.964;-2.212;2022-12-13T09:45:42;2.50;;;1.23;;
22480;SDS011;11407;56.964;-2.212;2022-12-13T09:48:09;1.27;;;0.80;;
22480;SDS011;11407;56.964;-2.212;2022-12-13T09:50:40;1.67;;;0.87;;
22480;SDS011;11407;56.964;-2.212;2022-12-13T09:53:06;1.23;;;0.77;;
22480;SDS011;11407;56.964;-2.212;2022-12-13T09:55:38;1.80;;;0.70;;
22480;SDS011;11407;56.964;-2.212;2022-12-13T09:58:17;0.60;;;0.50;;
22480;SDS011;11407;56.964;-2.212;2022-12-13T10:00:50;1.23;;;0.50;;
22480;SDS011;11407;56.964;-2.212;2022-12-13T10:03:17;0.60;;;0.47;;
22480;SDS011;11407;56.964;-2.212;2022-12-13T10:08:26;0.63;;;0.60;;
22480;SDS011;11407;56.964;-2.212;2022-12-13T10:10:56;1.53;;;0.80;;
22480;SDS011;11407;56.964;-2.212;2022-12-13T10:18:49;1.07;;;0.70;;
22480;SDS011;11407;56.964;-2.212;2022-12-13T10:21:19;1.73;;;0.80;;
22480;SDS011;11407;56.964;-2.212;2022-12-13T10:23:53;1.33;;;0.90;;
22480;SDS011;11407;56.964;-2.212;2022-12-13T10:26:18;0.87;;;0.63;;
22480;SDS011;11407;56.964;-2.212;2022-12-13T10:28:44;1.33;;;0.97;;
22480;SDS011;11407;56.964;-2.212;2022-12-13T10:31:16;2.00;;;0.70;;
22480;SDS011;11407;56.964;-2.212;2022-12-13T10:33:53;1.40;;;0.90;;
22480;SDS011;11407;56.964;-2.212;2022-12-13T10:36:34;1.17;;;0.77;;
22480;SDS011;11407;56.964;-2.212;2022-12-13T10:39:02;2.47;;;0.90;;
22480;SDS011;11407;56.964;-2.212;2022-12-13T10:41:35;2.00;;;0.67;;
22480;SDS011;11407;56.964;-2.212;2022-12-13T10:46:33;0.93;;;0.83;;
22480;SDS011;11407;56.964;-2.212;2022-12-13T10:48:59;1.93;;;1.07;;
22480;SDS011;11407;56.964;-2.212;2022-12-13T10:51:25;0.93;;;0.70;;
22480;SDS011;11407;56.964;-2.212;2022-12-13T10:53:52;1.37;;;0.80;;
22480;SDS011;11407;56.964;-2.212;2022-12-13T10:56:21;1.30;;;1.00;;
22480;SDS011;11407;56.964;-2.212;2022-12-13T10:59:10;2.17;;;1.30;;
22480;SDS011;11407;56.964;-2.212;2022-12-13T11:01:47;1.77;;;0.90;;
22480;SDS011;11407;56.964;-2.212;2022-12-13T11:04:19;1.30;;;1.00;;
22480;SDS011;11407;56.964;-2.212;2022-12-13T11:06:46;1.30;;;0.90;;
22480;SDS011;11407;56.964;-2.212;2022-12-13T11:11:53;1.40;;;1.00;;
22480;SDS011;11407;56.964;-2.212;2022-12-13T11:14:23;1.60;;;1.00;;
22480;SDS011;11407;56.964;-2.212;2022-12-13T11:16:58;3.03;;;1.23;;
22480;SDS011;11407;56.964;-2.212;2022-12-13T11:19:35;2.23;;;1.40;;
22480;SDS011;11407;56.964;-2.212;2022-12-13T11:22:03;2.03;;;1.30;;
22480;SDS011;11407;56.964;-2.212;2022-12-13T11:24:31;1.90;;;1.00;;
22480;SDS011;11407;56.964;-2.212;2022-12-13T11:27:03;1.67;;;1.10;;
22480;SDS011;11407;56.964;-2.212;2022-12-13T11:40:31;1.23;;;0.70;;
22480;SDS011;11407;56.964;-2.212;2022-12-13T11:43:07;1.10;;;0.60;;
22480;SDS011;11407;56.964;-2.212;2022-12-13T11:45:55;0.67;;;0.60;;
22480;SDS011;11407;56.964;-2.212;2022-12-13T11:48:46;4.17;;;2.70;;
22480;SDS011;11407;56.964;-2.212;2022-12-13T11:51:14;3.40;;;2.00;;
22480;SDS011;11407;56.964;-2.212;2022-12-13T11:53:51;4.47;;;2.90;;
22480;SDS011;11407;56.964;-2.212;2022-12-13T11:56:30;1.73;;;1.30;;
22480;SDS011;11407;56.964;-2.212;2022-12-13T11:59:23;2.20;;;1.40;;
22480;SDS011;11407;56.964;-2.212;2022-12-13T12:01:51;2.03;;;1.20;;
22480;SDS011;11407;56.964;-2.212;2022-12-13T12:07:18;1.80;;;1.20;;
22480;SDS011;11407;56.964;-2.212;2022-12-13T12:10:00;1.70;;;1.27;;
22480;SDS011;11407;56.964;-2.212;2022-12-13T12:12:38;1.43;;;1.07;;
22480;SDS011;11407;56.964;-2.212;2022-12-13T12:15:22;2.23;;;1.20;;
22480;SDS011;11407;56.964;-2.212;2022-12-13T12:17:59;0.80;;;0.70;;
22480;SDS011;11407;56.964;-2.212;2022-12-13T12:25:42;9.07;;;3.70;;
22480;SDS011;11407;56.964;-2.212;2022-12-13T12:28:22;4.93;;;1.97;;
22480;SDS011;11407;56.964;-2.212;2022-12-13T12:34:10;3.67;;;2.43;;
22480;SDS011;11407;56.964;-2.212;2022-12-13T12:50:47;1.20;;;0.93;;
22480;SDS011;11407;56.964;-2.212;2022-12-13T12:53:28;1.60;;;1.03;;
22480;SDS011;11407;56.964;-2.212;2022-12-13T12:59:00;1.20;;;0.90;;
22480;SDS011;11407;56.964;-2.212;2022-12-13T13:04:05;1.43;;;1.17;;
22480;SDS011;11407;56.964;-2.212;2022-12-13T13:06:42;1.67;;;1.17;;
22480;SDS011;11407;56.964;-2.212;2022-12-13T13:09:11;3.80;;;1.57;;
22480;SDS011;11407;56.964;-2.212;2022-12-13T13:11:41;3.13;;;1.60;;
22480;SDS011;11407;56.964;-2.212;2022-12-13T13:16:52;4.40;;;1.70;;
22480;SDS011;11407;56.964;-2.212;2022-12-13T13:21:48;2.33;;;1.80;;
22480;SDS011;11407;56.964;-2.212;2022-12-13T13:29:20;1.27;;;1.10;;
22480;SDS011;11407;56.964;-2.212;2022-12-13T13:31:55;4.27;;;1.40;;
22480;SDS011;11407;56.964;-2.212;2022-12-13T13:34:37;1.20;;;1.10;;
22480;SDS011;11407;56.964;-2.212;2022-12-13T13:39:55;1.60;;;1.23;;
22480;SDS011;11407;56.964;-2.212;2022-12-13T13:47:27;1.83;;;1.23;;
22480;SDS011;11407;56.964;-2.212;2022-12-13T14:26:18;3.03;;;1.50;;
22480;SDS011;11407;56.964;-2.212;2022-12-13T14:29:12;1.90;;;1.13;;
22480;SDS011;11407;56.964;-2.212;2022-12-13T14:34:34;1.83;;;1.30;;
22480;SDS011;11407;56.964;-2.212;2022-12-13T14:37:03;1.80;;;1.40;;
22480;SDS011;11407;56.964;-2.212;2022-12-13T14:39:31;2.20;;;1.53;;
22480;SDS011;11407;56.964;-2.212;2022-12-13T14:42:01;2.73;;;1.33;;
22480;SDS011;11407;56.964;-2.212;2022-12-13T14:44:44;3.03;;;1.70;;
22480;SDS011;11407;56.964;-2.212;2022-12-13T14:47:09;3.93;;;1.60;;
22480;SDS011;11407;56.964;-2.212;2022-12-13T14:49:40;3.53;;;1.60;;
22480;SDS011;11407;56.964;-2.212;2022-12-13T14:52:20;1.67;;;1.33;;
22480;SDS011;11407;56.964;-2.212;2022-12-13T14:54:59;2.50;;;1.60;;
22480;SDS011;11407;56.964;-2.212;2022-12-13T14:57:29;3.47;;;1.97;;
22480;SDS011;11407;56.964;-2.212;2022-12-13T14:59:57;3.00;;;1.80;;
22480;SDS011;11407;56.964;-2.212;2022-12-13T15:02:24;3.77;;;1.90;;
22480;SDS011;11407;56.964;-2.212;2022-12-13T15:04:55;4.73;;;2.43;;
22480;SDS011;11407;56.964;-2.212;2022-12-13T15:07:35;5.43;;;2.77;;
22480;SDS011;11407;56.964;-2.212;2022-12-13T15:12:51;7.60;;;3.23;;
22480;SDS011;11407;56.964;-2.212;2022-12-13T15:15:31;5.00;;;2.70;;
22480;SDS011;11407;56.964;-2.212;2022-12-13T15:20:36;1.83;;;1.60;;
22480;SDS011;11407;56.964;-2.212;2022-12-13T15:25:44;3.87;;;1.80;;
22480;SDS011;11407;56.964;-2.212;2022-12-13T15:28:13;4.37;;;2.17;;
22480;SDS011;11407;56.964;-2.212;2022-12-13T15:30:39;7.37;;;3.00;;
22480;SDS011;11407;56.964;-2.212;2022-12-13T15:35:46;4.10;;;1.50;;
22480;SDS011;11407;56.964;-2.212;2022-12-13T15:38:15;2.87;;;1.60;;
22480;SDS011;11407;56.964;-2.212;2022-12-13T15:40:47;3.20;;;2.13;;
22480;SDS011;11407;56.964;-2.212;2022-12-13T15:43:14;5.00;;;1.80;;
22480;SDS011;11407;56.964;-2.212;2022-12-13T15:45:46;3.67;;;1.53;;
22480;SDS011;11407;56.964;-2.212;2022-12-13T15:48:24;1.50;;;1.20;;
22480;SDS011;11407;56.964;-2.212;2022-12-13T15:51:26;4.20;;;1.50;;
22480;SDS011;11407;56.964;-2.212;2022-12-13T15:59:41;2.53;;;1.53;;
22480;SDS011;11407;56.964;-2.212;2022-12-13T16:02:11;3.80;;;2.77;;
22480;SDS011;11407;56.964;-2.212;2022-12-13T16:04:41;4.73;;;2.10;;
22480;SDS011;11407;56.964;-2.212;2022-12-13T16:07:15;2.37;;;1.50;;
22480;SDS011;11407;56.964;-2.212;2022-12-13T16:09:56;4.07;;;1.73;;
22480;SDS011;11407;56.964;-2.212;2022-12-13T16:12:28;2.83;;;1.87;;
22480;SDS011;11407;56.964;-2.212;2022-12-13T16:17:40;7.73;;;4.70;;
22480;SDS011;11407;56.964;-2.212;2022-12-13T16:20:11;9.83;;;4.77;;
22480;SDS011;11407;56.964;-2.212;2022-12-13T16:22:38;7.17;;;4.30;;
22480;SDS011;11407;56.964;-2.212;2022-12-13T16:25:05;7.43;;;4.73;;
22480;SDS011;11407;56.964;-2.212;2022-12-13T16:27:31;14.47;;;7.97;;
22480;SDS011;11407;56.964;-2.212;2022-12-13T16:29:57;15.67;;;8.67;;
22480;SDS011;11407;56.964;-2.212;2022-12-13T16:32:22;11.57;;;6.10;;
22480;SDS011;11407;56.964;-2.212;2022-12-13T16:34:47;9.83;;;5.13;;
22480;SDS011;11407;56.964;-2.212;2022-12-13T16:37:13;7.37;;;3.60;;
22480;SDS011;11407;56.964;-2.212;2022-12-13T16:39:38;6.50;;;3.20;;
22480;SDS011;11407;56.964;-2.212;2022-12-13T16:42:04;8.20;;;4.07;;
22480;SDS011;11407;56.964;-2.212;2022-12-13T16:44:34;6.60;;;4.00;;
22480;SDS011;11407;56.964;-2.212;2022-12-13T16:47:01;8.73;;;3.40;;
22480;SDS011;11407;56.964;-2.212;2022-12-13T16:49:32;5.00;;;3.03;;
22480;SDS011;11407;56.964;-2.212;2022-12-13T16:51:57;6.50;;;2.87;;
22480;SDS011;11407;56.964;-2.212;2022-12-13T16:54:23;5.03;;;2.97;;
22480;SDS011;11407;56.964;-2.212;2022-12-13T16:56:50;8.37;;;4.60;;
22480;SDS011;11407;56.964;-2.212;2022-12-13T16:59:18;8.20;;;4.00;;
22480;SDS011;11407;56.964;-2.212;2022-12-13T17:01:46;7.53;;;4.37;;
22480;SDS011;11407;56.964;-2.212;2022-12-13T17:04:14;8.20;;;5.10;;
22480;SDS011;11407;56.964;-2.212;2022-12-13T17:06:41;12.43;;;5.93;;
22480;SDS011;11407;56.964;-2.212;2022-12-13T17:09:07;9.10;;;5.60;;
22480;SDS011;11407;56.964;-2.212;2022-12-13T17:11:33;9.60;;;5.97;;
22480;SDS011;11407;56.964;-2.212;2022-12-13T17:13:59;10.53;;;5.43;;
22480;SDS011;11407;56.964;-2.212;2022-12-13T17:16:25;6.47;;;3.70;;
22480;SDS011;11407;56.964;-2.212;2022-12-13T17:18:51;8.27;;;3.80;;